Time;durP1;ratioP1;P1;durP2;ratioP2;P2;SDS_P1;SDS_P2;PMS_P1;PMS_P2;Temp;Humidity;BMP_temperature;BMP_pressure;BME280_temperature;BME280_humidity;BME280_pressure;Samples;Min_cycle;Max_cycle;Signal;HPM_P1;HPM_P2
2023/12/04 00:01:32;;;;;;;3.17;0.90;;;21.60;99.90;;;;;;5052881;28;20634;-79
2023/12/04 00:04:03;;;;;;;4.20;0.80;;;21.70;99.90;;;;;;5052940;28;20279;-80
2023/12/04 00:06:34;;;;;;;2.08;0.60;;;21.80;99.90;;;;;;5052891;28;20197;-78
2023/12/04 00:09:07;;;;;;;4.05;0.77;;;21.90;99.90;;;;;;5052866;28;20193;-79
2023/12/04 00:11:37;;;;;;;3.63;0.65;;;22.10;99.90;;;;;;5053057;28;20197;-79
2023/12/04 00:14:08;;;;;;;4.22;0.70;;;22.50;99.90;;;;;;5053180;28;20190;-80
2023/12/04 00:16:39;;;;;;;2.03;0.68;;;22.90;99.90;;;;;;5052656;28;20281;-80
2023/12/04 00:19:10;;;;;;;3.30;0.77;;;23.30;99.90;;;;;;5052736;28;20197;-78
2023/12/04 00:21:41;;;;;;;2.78;0.70;;;23.40;99.90;;;;;;5052829;28;20198;-79
2023/12/04 00:24:13;;;;;;;3.55;0.60;;;23.60;99.90;;;;;;5052720;28;20186;-79
2023/12/04 00:26:47;;;;;;;2.97;0.80;;;23.70;99.90;;;;;;5052701;28;20190;-79
2023/12/04 00:29:18;;;;;;;2.17;0.60;;;23.80;99.90;;;;;;5052925;28;20196;-79
2023/12/04 00:31:48;;;;;;;2.67;0.80;;;23.70;99.90;;;;;;5052794;28;20190;-79
2023/12/04 00:34:19;;;;;;;3.35;0.77;;;23.60;99.90;;;;;;5052697;28;20307;-79
2023/12/04 00:36:50;;;;;;;18.08;4.47;;;23.20;99.90;;;;;;5052631;28;20197;-79
2023/12/04 00:39:23;;;;;;;2.72;0.98;;;23.10;99.90;;;;;;5052990;28;20280;-79
2023/12/04 00:41:53;;;;;;;3.25;0.93;;;23.00;99.90;;;;;;5052614;28;20186;-79
2023/12/04 00:44:24;;;;;;;1.95;0.80;;;23.00;99.90;;;;;;5055319;28;20644;-80
2023/12/04 00:46:55;;;;;;;4.63;0.82;;;22.90;99.90;;;;;;5055829;28;20569;-78
2023/12/04 00:49:26;;;;;;;4.45;1.65;;;22.80;99.90;;;;;;5056084;28;20196;-80
2023/12/04 00:51:56;;;;;;;2.97;0.85;;;22.80;99.90;;;;;;5056072;28;20193;-79
2023/12/04 00:54:29;;;;;;;1.75;0.80;;;22.60;99.90;;;;;;5056131;28;20200;-80
2023/12/04 00:57:00;;;;;;;1.10;0.50;;;22.60;99.90;;;;;;5055897;28;20197;-80
2023/12/04 00:59:31;;;;;;;2.67;0.63;;;22.50;99.90;;;;;;5055664;28;20193;-78
2023/12/04 01:02:01;;;;;;;3.53;0.90;;;22.40;99.90;;;;;;5055812;28;20200;-80
2023/12/04 01:04:32;;;;;;;3.40;0.68;;;22.30;99.90;;;;;;5055694;28;20243;-78
2023/12/04 01:07:03;;;;;;;2.47;0.80;;;22.20;99.90;;;;;;5055700;28;20681;-78
2023/12/04 01:09:38;;;;;;;2.65;0.88;;;22.20;99.90;;;;;;5055592;28;20193;-80
2023/12/04 01:12:09;;;;;;;3.63;0.77;;;22.30;99.90;;;;;;5055911;28;20637;-80
2023/12/04 01:14:40;;;;;;;5.75;0.90;;;22.40;99.90;;;;;;5055361;28;20189;-80
2023/12/04 01:17:11;;;;;;;3.50;0.80;;;22.60;99.90;;;;;;5055643;28;20193;-80
2023/12/04 01:19:41;;;;;;;2.78;0.90;;;22.70;99.90;;;;;;5055543;28;20226;-80
2023/12/04 01:22:12;;;;;;;2.92;0.70;;;22.80;99.90;;;;;;5055457;28;20190;-77
2023/12/04 01:24:45;;;;;;;3.35;0.88;;;22.90;99.90;;;;;;5055430;28;20204;-81
2023/12/04 01:27:16;;;;;;;2.45;0.70;;;23.00;99.90;;;;;;5055620;28;20220;-81
2023/12/04 01:29:47;;;;;;;3.53;0.65;;;23.50;99.90;;;;;;5055647;28;20229;-80
2023/12/04 01:32:17;;;;;;;2.63;0.60;;;23.80;99.90;;;;;;5055221;28;20200;-81
2023/12/04 01:34:48;;;;;;;2.03;0.50;;;23.90;99.90;;;;;;5055151;28;20221;-80
2023/12/04 01:37:19;;;;;;;3.00;0.50;;;24.00;99.90;;;;;;5055118;28;20225;-80
2023/12/04 01:39:51;;;;;;;4.57;0.90;;;24.10;99.90;;;;;;5055067;28;20182;-81
2023/12/04 01:42:22;;;;;;;4.43;0.80;;;24.40;99.90;;;;;;5055056;28;20197;-81
2023/12/04 01:44:53;;;;;;;3.10;0.57;;;24.40;99.90;;;;;;5054822;28;20280;-81
2023/12/04 01:47:24;;;;;;;3.33;0.65;;;24.50;99.90;;;;;;5054829;28;20224;-80
2023/12/04 01:49:55;;;;;;;1.77;0.50;;;24.80;99.90;;;;;;5054972;28;20204;-80
2023/12/04 01:52:26;;;;;;;2.65;0.55;;;25.00;99.90;;;;;;5054912;28;20646;-80
2023/12/04 01:54:58;;;;;;;4.85;0.70;;;25.10;99.90;;;;;;5054394;28;20190;-80
2023/12/04 01:57:29;;;;;;;4.97;0.68;;;25.30;99.90;;;;;;5054745;28;20229;-81
2023/12/04 02:00:00;;;;;;;2.40;0.73;;;25.30;99.90;;;;;;5054797;28;20553;-81
2023/12/04 02:02:31;;;;;;;2.20;0.47;;;25.00;99.90;;;;;;5054482;28;20650;-80
2023/12/04 02:05:03;;;;;;;3.05;0.45;;;24.80;99.90;;;;;;5054582;28;20273;-80
2023/12/04 02:07:35;;;;;;;2.80;0.52;;;24.70;99.90;;;;;;5054502;28;20221;-80
2023/12/04 02:10:08;;;;;;;4.45;0.52;;;24.60;99.90;;;;;;5054453;28;20190;-80
2023/12/04 02:12:39;;;;;;;1.63;0.70;;;24.60;99.90;;;;;;5054196;28;20194;-82
2023/12/04 02:15:11;;;;;;;1.60;0.57;;;24.30;99.90;;;;;;5054382;28;20186;-81
2023/12/04 02:17:43;;;;;;;1.25;0.45;;;24.10;99.90;;;;;;5054380;28;20276;-81
2023/12/04 02:20:17;;;;;;;1.35;0.60;;;24.30;99.90;;;;;;5054681;28;20237;-82
2023/12/04 02:22:47;;;;;;;4.05;0.80;;;24.50;99.90;;;;;;5054284;28;20193;-80
2023/12/04 02:25:20;;;;;;;3.28;0.70;;;24.90;99.90;;;;;;5054218;28;20240;-81
2023/12/04 02:27:55;;;;;;;1.52;0.57;;;25.10;99.90;;;;;;5053874;28;20263;-81
2023/12/04 02:30:27;;;;;;;1.95;0.57;;;25.50;99.90;;;;;;5054173;28;20198;-79
2023/12/04 02:33:01;;;;;;;2.00;0.30;;;25.80;99.90;;;;;;5053891;28;20228;-82
2023/12/04 02:35:35;;;;;;;6.28;1.00;;;25.80;99.90;;;;;;5053937;28;20193;-82
2023/12/04 02:38:07;;;;;;;3.80;0.60;;;25.60;99.90;;;;;;5054135;28;20272;-81
2023/12/04 02:40:39;;;;;;;2.92;0.50;;;25.20;99.90;;;;;;5054083;28;20185;-81
2023/12/04 02:43:10;;;;;;;2.00;0.60;;;24.80;99.90;;;;;;5053806;28;20212;-80
2023/12/04 02:45:41;;;;;;;2.28;0.55;;;24.50;99.90;;;;;;5053934;28;20196;-81
2023/12/04 02:48:12;;;;;;;1.45;0.55;;;24.40;99.90;;;;;;5053906;28;20228;-80
2023/12/04 02:50:43;;;;;;;1.80;0.60;;;24.20;99.90;;;;;;5053815;28;20194;-80
2023/12/04 02:53:13;;;;;;;2.25;0.50;;;24.20;99.90;;;;;;5054430;28;20288;-81
2023/12/04 02:55:46;;;;;;;2.33;0.68;;;24.10;99.90;;;;;;5053675;28;20201;-81
2023/12/04 02:58:17;;;;;;;1.95;0.57;;;24.00;99.90;;;;;;5053601;28;20200;-80
2023/12/04 03:00:47;;;;;;;1.92;0.50;;;24.00;99.90;;;;;;5053619;28;20186;-80
2023/12/04 03:03:18;;;;;;;2.60;0.95;;;24.00;99.90;;;;;;5053281;28;20244;-81
2023/12/04 03:05:49;;;;;;;1.63;0.40;;;24.10;99.90;;;;;;5052350;28;20189;-81
2023/12/04 03:08:20;;;;;;;1.90;0.45;;;24.30;99.90;;;;;;5053010;28;20219;-82
2023/12/04 03:10:52;;;;;;;3.10;0.45;;;24.60;99.90;;;;;;5053104;28;20190;-80
2023/12/04 03:13:23;;;;;;;1.83;0.47;;;24.60;99.90;;;;;;5053487;28;20240;-81
2023/12/04 03:15:54;;;;;;;2.47;0.35;;;24.80;99.90;;;;;;5053610;28;20221;-81
2023/12/04 03:18:25;;;;;;;2.72;0.50;;;25.00;99.90;;;;;;5053287;28;20208;-78
2023/12/04 03:20:56;;;;;;;3.42;0.68;;;25.00;99.90;;;;;;5053660;28;20198;-81
2023/12/04 03:23:27;;;;;;;2.55;0.40;;;25.00;99.90;;;;;;5053011;28;20229;-79
2023/12/04 03:25:59;;;;;;;2.33;0.57;;;24.90;99.90;;;;;;5052934;28;20201;-81
2023/12/04 03:28:30;;;;;;;1.90;0.60;;;24.80;99.90;;;;;;5053205;28;20228;-82
2023/12/04 03:31:01;;;;;;;2.42;0.45;;;24.90;99.90;;;;;;5053221;28;20186;-83
2023/12/04 03:33:32;;;;;;;0.63;0.30;;;24.90;99.90;;;;;;5053395;28;20336;-81
2023/12/04 03:36:03;;;;;;;1.35;0.35;;;24.70;99.90;;;;;;5053179;28;20197;-82
2023/12/04 03:38:34;;;;;;;0.35;0.30;;;24.80;99.90;;;;;;5053267;28;20200;-82
2023/12/04 03:41:07;;;;;;;1.00;0.35;;;24.60;99.90;;;;;;5052965;28;20194;-82
2023/12/04 03:43:38;;;;;;;3.53;0.60;;;24.70;99.90;;;;;;5053397;28;20249;-83
2023/12/04 03:46:09;;;;;;;1.80;0.47;;;24.80;99.90;;;;;;5053037;28;20289;-81
2023/12/04 03:48:39;;;;;;;1.75;0.40;;;24.90;99.90;;;;;;5052931;28;20583;-80
2023/12/04 03:51:10;;;;;;;1.50;0.38;;;25.00;99.90;;;;;;5053024;28;20255;-78
2023/12/04 03:53:41;;;;;;;2.10;0.50;;;25.00;99.90;;;;;;5053115;28;20631;-78
2023/12/04 03:56:14;;;;;;;1.73;0.40;;;24.80;99.90;;;;;;5052897;28;20215;-80
2023/12/04 03:58:45;;;;;;;1.83;0.50;;;24.80;99.90;;;;;;5052945;28;20240;-79
2023/12/04 04:01:16;;;;;;;2.75;0.40;;;24.60;99.90;;;;;;5052957;28;20192;-82
2023/12/04 04:03:47;;;;;;;0.47;0.38;;;24.70;99.90;;;;;;5052636;28;20236;-80
2023/12/04 04:06:18;;;;;;;0.47;0.38;;;24.60;99.90;;;;;;5052863;28;20194;-79
2023/12/04 04:08:49;;;;;;;3.13;0.40;;;24.60;99.90;;;;;;5052713;28;20673;-80
2023/12/04 04:11:22;;;;;;;1.92;0.50;;;24.40;99.90;;;;;;5052842;28;20193;-80
2023/12/04 04:13:52;;;;;;;2.10;0.40;;;24.40;99.90;;;;;;5052895;28;20642;-77
2023/12/04 04:16:23;;;;;;;1.48;0.50;;;24.40;99.90;;;;;;5052724;28;20198;-80
2023/12/04 04:18:54;;;;;;;0.60;0.40;;;24.40;99.90;;;;;;5056356;28;20199;-80
2023/12/04 04:21:25;;;;;;;1.73;0.43;;;24.30;99.90;;;;;;5056540;28;20277;-82
2023/12/04 04:23:55;;;;;;;1.35;0.45;;;24.40;99.90;;;;;;5056499;28;20189;-84
2023/12/04 04:26:28;;;;;;;2.20;0.40;;;24.30;99.90;;;;;;5056443;28;20201;-81
2023/12/04 04:28:59;;;;;;;2.53;0.40;;;24.20;99.90;;;;;;5056486;28;20217;-80
2023/12/04 04:31:30;;;;;;;1.52;0.45;;;24.30;99.90;;;;;;5056435;28;20196;-78
2023/12/04 04:34:01;;;;;;;1.38;0.30;;;24.30;99.90;;;;;;5056266;28;20221;-79
2023/12/04 04:36:31;;;;;;;2.05;0.30;;;24.10;99.90;;;;;;5056288;28;20224;-78
2023/12/04 04:39:02;;;;;;;1.33;0.38;;;24.10;99.90;;;;;;5056061;28;20192;-79
2023/12/04 04:41:35;;;;;;;7.00;1.40;;;24.30;99.90;;;;;;5056199;28;20195;-81
2023/12/04 04:44:06;;;;;;;1.20;0.43;;;24.30;99.90;;;;;;5056255;28;20277;-81
2023/12/04 04:46:36;;;;;;;1.05;0.20;;;24.30;99.90;;;;;;5056047;28;20189;-80
2023/12/04 04:49:07;;;;;;;2.67;0.50;;;24.30;99.90;;;;;;5056207;28;20225;-78
2023/12/04 04:51:38;;;;;;;0.45;0.25;;;24.20;99.90;;;;;;5055883;28;20634;-79
2023/12/04 04:54:09;;;;;;;0.75;0.30;;;24.20;99.90;;;;;;5056053;28;20559;-80
2023/12/04 04:56:42;;;;;;;2.47;0.40;;;24.00;99.90;;;;;;5055928;28;20236;-78
2023/12/04 04:59:12;;;;;;;0.88;0.30;;;24.00;99.90;;;;;;5055999;28;20216;-80
2023/12/04 05:01:43;;;;;;;1.55;0.40;;;24.00;99.90;;;;;;5055881;28;20201;-81
2023/12/04 05:04:14;;;;;;;0.80;0.40;;;24.00;99.90;;;;;;5055691;28;20229;-79
2023/12/04 05:06:45;;;;;;;1.38;0.30;;;24.10;99.90;;;;;;5055504;28;20194;-80
2023/12/04 05:09:15;;;;;;;1.30;0.43;;;24.00;99.90;;;;;;5055772;28;20217;-80
2023/12/04 05:11:48;;;;;;;1.55;0.40;;;24.00;99.90;;;;;;5055721;28;20201;-80
2023/12/04 05:14:19;;;;;;;2.20;0.43;;;24.10;99.90;;;;;;5055685;28;20564;-79
2023/12/04 05:16:50;;;;;;;0.93;0.30;;;24.10;99.90;;;;;;5055761;28;20194;-80
2023/12/04 05:19:21;;;;;;;2.80;0.40;;;23.90;99.90;;;;;;5055658;28;20197;-83
2023/12/04 05:21:52;;;;;;;1.23;0.25;;;23.90;99.90;;;;;;5055427;28;20201;-80
2023/12/04 05:24:22;;;;;;;1.25;0.30;;;23.90;99.90;;;;;;5055430;28;20213;-80
2023/12/04 05:26:55;;;;;;;2.30;0.47;;;23.90;99.90;;;;;;5055290;28;20728;-84
2023/12/04 05:29:26;;;;;;;2.53;0.38;;;23.70;99.90;;;;;;5054403;28;20217;-81
2023/12/04 05:31:57;;;;;;;1.25;0.30;;;23.70;99.90;;;;;;5055343;28;20232;-80
2023/12/04 05:34:27;;;;;;;1.30;0.30;;;23.70;99.90;;;;;;5055225;28;20279;-80
2023/12/04 05:36:58;;;;;;;0.30;0.30;;;23.70;99.90;;;;;;5054947;28;20205;-80
2023/12/04 05:39:29;;;;;;;1.20;0.40;;;23.70;99.90;;;;;;5055592;28;20733;-80
2023/12/04 05:42:02;;;;;;;0.75;0.38;;;23.70;99.90;;;;;;5055538;28;20708;-79
2023/12/04 05:44:33;;;;;;;1.17;0.47;;;23.60;99.90;;;;;;5055028;28;20200;-80
2023/12/04 05:47:04;;;;;;;0.68;0.20;;;23.60;99.90;;;;;;5055072;28;20204;-80
2023/12/04 05:49:35;;;;;;;1.98;0.47;;;23.50;99.90;;;;;;5054854;28;20228;-80
2023/12/04 05:52:06;;;;;;;2.85;0.40;;;23.40;99.90;;;;;;5055106;28;20197;-81
2023/12/04 05:54:37;;;;;;;1.75;0.40;;;23.40;99.90;;;;;;5054882;28;20196;-78
2023/12/04 05:57:09;;;;;;;1.02;0.22;;;23.30;99.90;;;;;;5055111;28;20663;-77
2023/12/04 05:59:40;;;;;;;2.28;0.30;;;23.30;99.90;;;;;;5054902;28;20194;-80
2023/12/04 06:02:11;;;;;;;1.83;0.63;;;23.30;99.90;;;;;;5055026;28;20211;-80
2023/12/04 06:04:42;;;;;;;1.48;0.40;;;23.30;99.90;;;;;;5055026;28;20609;-80
2023/12/04 06:07:14;;;;;;;3.42;0.40;;;23.30;99.90;;;;;;5054769;28;20664;-79
2023/12/04 06:09:45;;;;;;;1.05;0.25;;;23.30;99.90;;;;;;5054498;28;20257;-80
2023/12/04 06:12:17;;;;;;;2.10;0.35;;;23.10;99.90;;;;;;5054476;28;20190;-77
2023/12/04 06:14:48;;;;;;;0.55;0.28;;;23.10;99.90;;;;;;5054385;28;20190;-79
2023/12/04 06:17:19;;;;;;;1.75;0.40;;;23.00;99.90;;;;;;5054791;28;20228;-80
2023/12/04 06:19:50;;;;;;;0.40;0.30;;;23.00;99.90;;;;;;5054262;28;20194;-79
2023/12/04 06:22:21;;;;;;;1.45;0.45;;;23.00;99.90;;;;;;5054355;28;20190;-80
2023/12/04 06:24:52;;;;;;;0.98;0.30;;;23.00;99.90;;;;;;5054254;28;20201;-80
2023/12/04 06:27:25;;;;;;;1.05;0.30;;;23.00;99.90;;;;;;5054258;28;20190;-80
2023/12/04 06:29:57;;;;;;;3.60;0.32;;;23.00;99.90;;;;;;5054096;28;20217;-82
2023/12/04 06:32:28;;;;;;;3.60;0.30;;;23.00;99.90;;;;;;5054122;28;20189;-79
2023/12/04 06:34:59;;;;;;;1.85;0.28;;;22.90;99.90;;;;;;5053925;28;20292;-78
2023/12/04 06:37:30;;;;;;;1.23;0.30;;;22.80;99.90;;;;;;5054059;28;20207;-79
2023/12/04 06:40:03;;;;;;;1.35;0.30;;;22.80;99.90;;;;;;5054006;28;20205;-78
2023/12/04 06:42:37;;;;;;;0.85;0.20;;;22.80;99.90;;;;;;5053871;28;20252;-79
2023/12/04 06:45:09;;;;;;;0.50;0.28;;;22.70;99.90;;;;;;5053762;28;20201;-77
2023/12/04 06:47:42;;;;;;;0.95;0.30;;;22.70;99.90;;;;;;5053756;28;20186;-78
2023/12/04 06:50:13;;;;;;;1.58;0.30;;;22.70;99.90;;;;;;5054557;28;20665;-81
2023/12/04 06:52:44;;;;;;;1.27;0.30;;;22.60;99.90;;;;;;5053840;28;20281;-80
2023/12/04 06:55:15;;;;;;;1.60;0.30;;;22.50;99.90;;;;;;5053665;28;20189;-79
2023/12/04 06:57:48;;;;;;;0.55;0.10;;;22.60;99.90;;;;;;5053742;28;20582;-77
2023/12/04 07:00:19;;;;;;;0.65;0.20;;;22.60;99.90;;;;;;5053664;28;20212;-77
2023/12/04 07:02:50;;;;;;;1.88;0.30;;;22.50;99.90;;;;;;5053465;28;20244;-79
2023/12/04 07:05:22;;;;;;;0.38;0.20;;;22.50;99.90;;;;;;5053558;28;20276;-76
2023/12/04 07:07:52;;;;;;;0.30;0.10;;;22.40;99.90;;;;;;5053791;28;20194;-75
2023/12/04 07:10:23;;;;;;;0.63;0.20;;;22.40;99.90;;;;;;5053727;28;20229;-80
2023/12/04 07:12:59;;;;;;;0.63;0.32;;;22.30;99.90;;;;;;5053606;28;20611;-80
2023/12/04 07:15:30;;;;;;;2.65;0.50;;;22.20;99.90;;;;;;5053308;28;20193;-80
2023/12/04 07:18:00;;;;;;;1.35;0.40;;;22.10;99.90;;;;;;5053432;28;20574;-76
2023/12/04 07:20:31;;;;;;;1.27;0.30;;;22.20;99.90;;;;;;5053443;28;20523;-79
2023/12/04 07:23:02;;;;;;;3.58;0.50;;;22.20;99.90;;;;;;5053516;28;20196;-81
2023/12/04 07:25:33;;;;;;;1.63;0.40;;;22.30;99.90;;;;;;5053500;28;20212;-80
2023/12/04 07:28:06;;;;;;;1.45;0.22;;;22.20;99.90;;;;;;5053326;28;20193;-78
2023/12/04 07:30:36;;;;;;;1.23;0.30;;;22.20;99.90;;;;;;5053187;28;20309;-80
2023/12/04 07:33:08;;;;;;;2.17;0.40;;;22.10;99.90;;;;;;5053025;28;20271;-80
2023/12/04 07:35:39;;;;;;;2.65;0.40;;;22.10;99.90;;;;;;5053155;28;20711;-80
2023/12/04 07:38:09;;;;;;;1.23;0.55;;;22.10;99.90;;;;;;5053242;28;20186;-80
2023/12/04 07:40:40;;;;;;;1.75;0.50;;;22.00;99.90;;;;;;5053271;28;20665;-81
2023/12/04 07:43:14;;;;;;;0.93;0.30;;;21.80;99.90;;;;;;5053204;28;20656;-81
2023/12/04 07:45:45;;;;;;;1.67;0.50;;;21.80;99.90;;;;;;5052863;28;20196;-82
2023/12/04 07:48:16;;;;;;;1.50;0.50;;;21.70;99.90;;;;;;5053103;28;20649;-80
2023/12/04 07:50:47;;;;;;;2.17;0.52;;;21.70;99.90;;;;;;5053221;28;20225;-79
2023/12/04 07:53:19;;;;;;;1.98;0.20;;;21.70;99.90;;;;;;5055676;28;20548;-80
2023/12/04 07:55:53;;;;;;;0.70;0.20;;;21.70;99.90;;;;;;5057148;28;20530;-80
2023/12/04 07:58:26;;;;;;;1.20;0.40;;;21.60;99.90;;;;;;5057110;28;20221;-80
2023/12/04 08:00:57;;;;;;;1.75;0.40;;;21.60;99.90;;;;;;5056808;28;20197;-80
2023/12/04 08:03:28;;;;;;;1.20;0.40;;;21.60;99.90;;;;;;5056927;28;20319;-80
2023/12/04 08:05:59;;;;;;;4.63;0.60;;;21.60;99.90;;;;;;5057050;28;20259;-77
2023/12/04 08:08:29;;;;;;;2.05;0.50;;;21.50;99.90;;;;;;5057057;28;20619;-80
2023/12/04 08:11:00;;;;;;;4.03;0.70;;;21.50;99.90;;;;;;5056933;28;20217;-81
2023/12/04 08:13:33;;;;;;;2.10;0.82;;;21.50;99.90;;;;;;5056836;28;20192;-80
2023/12/04 08:16:03;;;;;;;1.73;1.00;;;21.60;99.90;;;;;;5056568;28;20201;-78
2023/12/04 08:18:34;;;;;;;2.38;0.95;;;21.60;99.90;;;;;;5056670;28;20189;-80
2023/12/04 08:21:05;;;;;;;0.90;0.65;;;21.50;99.90;;;;;;5056692;28;20193;-82
2023/12/04 08:23:36;;;;;;;1.55;0.50;;;21.50;99.90;;;;;;5056733;28;20185;-79
2023/12/04 08:26:07;;;;;;;3.80;0.50;;;21.40;99.90;;;;;;5056591;28;20204;-79
2023/12/04 08:28:41;;;;;;;1.13;0.30;;;21.30;99.90;;;;;;5056516;28;20227;-82
2023/12/04 08:31:12;;;;;;;2.25;0.30;;;21.30;99.90;;;;;;5056546;28;20228;-81
2023/12/04 08:33:43;;;;;;;2.15;0.35;;;21.30;99.90;;;;;;5056392;28;20222;-81
2023/12/04 08:36:15;;;;;;;1.75;0.50;;;21.20;99.90;;;;;;5056322;28;20193;-81
2023/12/04 08:38:46;;;;;;;1.13;0.52;;;21.20;99.90;;;;;;5056332;28;20638;-82
2023/12/04 08:41:16;;;;;;;1.23;0.60;;;21.10;99.90;;;;;;5056452;28;20189;-79
2023/12/04 08:43:49;;;;;;;1.95;0.43;;;21.00;99.90;;;;;;5056085;28;20202;-81
2023/12/04 08:46:20;;;;;;;2.58;0.40;;;21.00;99.90;;;;;;5056114;28;20190;-80
2023/12/04 08:48:51;;;;;;;2.05;0.25;;;21.00;99.90;;;;;;5056141;28;20208;-79
2023/12/04 08:51:22;;;;;;;1.00;0.30;;;21.00;99.90;;;;;;5056018;28;20224;-79
2023/12/04 08:53:52;;;;;;;1.45;0.28;;;20.90;99.90;;;;;;5056728;28;20190;-80
2023/12/04 08:56:23;;;;;;;3.30;0.45;;;20.90;99.90;;;;;;5055936;28;20200;-79
2023/12/04 08:58:59;;;;;;;0.93;0.35;;;20.90;99.90;;;;;;5055846;28;20200;-78
2023/12/04 09:01:33;;;;;;;2.08;0.40;;;20.90;99.90;;;;;;5055996;28;20196;-79
2023/12/04 09:04:03;;;;;;;3.30;0.40;;;20.80;99.90;;;;;;5054589;28;20324;-78
2023/12/04 09:06:34;;;;;;;0.88;0.38;;;20.80;99.90;;;;;;5055826;28;20190;-80
2023/12/04 09:09:05;;;;;;;3.50;0.45;;;20.70;99.90;;;;;;5055751;28;20633;-81
2023/12/04 09:11:36;;;;;;;2.78;0.50;;;20.70;99.90;;;;;;5055645;28;20221;-80
2023/12/04 09:14:09;;;;;;;4.30;0.63;;;20.70;99.90;;;;;;5055925;28;20281;-79
2023/12/04 09:16:39;;;;;;;3.25;0.47;;;20.70;99.90;;;;;;5055597;28;20626;-79
2023/12/04 09:19:10;;;;;;;1.30;0.50;;;20.70;99.90;;;;;;5055545;28;20533;-79
2023/12/04 09:21:46;;;;;;;0.60;0.35;;;20.70;99.90;;;;;;5055554;28;20200;-80
2023/12/04 09:24:17;;;;;;;3.72;0.60;;;20.70;99.90;;;;;;5055466;28;20624;-79
2023/12/04 09:26:48;;;;;;;1.65;0.35;;;20.60;99.90;;;;;;5055449;28;20190;-79
2023/12/04 09:29:23;;;;;;;1.55;0.30;;;20.60;99.90;;;;;;5055081;28;20194;-79
2023/12/04 09:31:55;;;;;;;2.15;0.40;;;20.60;99.90;;;;;;5055494;28;20185;-80
2023/12/04 09:34:25;;;;;;;2.95;0.60;;;20.60;99.90;;;;;;5055226;28;20226;-79
2023/12/04 09:36:56;;;;;;;1.60;0.45;;;20.60;99.90;;;;;;5055295;28;20189;-80
2023/12/04 09:39:27;;;;;;;3.40;0.60;;;20.60;99.90;;;;;;5055246;28;20197;-78
2023/12/04 09:41:59;;;;;;;3.63;0.50;;;20.50;99.90;;;;;;5054972;28;20646;-77
2023/12/04 09:44:33;;;;;;;2.80;0.43;;;20.50;99.90;;;;;;5055136;28;20196;-79
2023/12/04 09:47:04;;;;;;;1.23;0.50;;;20.50;99.90;;;;;;5055122;28;20200;-78
2023/12/04 09:49:35;;;;;;;1.10;0.50;;;20.50;99.90;;;;;;5055054;28;20264;-76
2023/12/04 09:52:06;;;;;;;1.75;0.40;;;20.50;99.90;;;;;;5055039;28;20201;-79
2023/12/04 09:54:42;;;;;;;1.40;0.30;;;20.50;99.90;;;;;;5055296;28;20193;-76
2023/12/04 09:57:14;;;;;;;3.53;0.60;;;20.50;99.90;;;;;;5054716;28;20536;-76
2023/12/04 09:59:47;;;;;;;0.85;0.35;;;20.40;99.90;;;;;;5054846;28;20315;-78
2023/12/04 10:02:18;;;;;;;0.88;0.30;;;20.50;99.90;;;;;;5054802;28;20212;-77
2023/12/04 10:04:50;;;;;;;2.15;0.60;;;20.50;99.90;;;;;;5054706;28;20189;-76
2023/12/04 10:07:20;;;;;;;2.60;0.35;;;20.40;99.90;;;;;;5054673;28;20213;-77
2023/12/04 10:09:51;;;;;;;1.65;0.40;;;20.40;99.90;;;;;;5054542;28;20566;-76
2023/12/04 10:12:23;;;;;;;2.05;0.45;;;20.40;99.90;;;;;;5054487;28;20193;-75
2023/12/04 10:15:10;;;;;;;3.47;0.52;;;20.40;99.90;;;;;;5054114;28;20192;-75
2023/12/04 10:17:46;;;;;;;2.15;0.32;;;20.40;99.90;;;;;;5054439;28;20208;-75
2023/12/04 10:20:21;;;;;;;1.77;0.30;;;20.40;99.90;;;;;;5054363;28;20200;-77
2023/12/04 10:22:58;;;;;;;3.25;0.40;;;20.30;99.90;;;;;;5054583;28;20633;-78
2023/12/04 10:25:30;;;;;;;1.38;0.30;;;20.40;99.90;;;;;;5054079;28;20197;-78
2023/12/04 10:28:11;;;;;;;2.38;0.40;;;20.40;99.90;;;;;;5054344;28;20197;-79
2023/12/04 10:30:44;;;;;;;2.35;0.40;;;20.40;99.90;;;;;;5054407;28;20221;-76
2023/12/04 10:33:16;;;;;;;1.15;0.30;;;20.40;99.90;;;;;;5054212;28;20221;-78
2023/12/04 10:35:49;;;;;;;1.73;0.30;;;20.40;99.90;;;;;;5054334;28;20743;-79
2023/12/04 10:38:20;;;;;;;3.40;0.40;;;20.40;99.90;;;;;;5054204;28;20194;-76
2023/12/04 10:40:56;;;;;;;1.70;0.40;;;20.40;99.90;;;;;;5053899;28;20216;-76
2023/12/04 10:43:28;;;;;;;5.05;0.47;;;20.30;99.90;;;;;;5053926;28;20601;-78
2023/12/04 10:46:02;;;;;;;0.82;0.40;;;20.30;99.90;;;;;;5053893;28;20193;-78
2023/12/04 10:48:35;;;;;;;3.08;0.30;;;20.30;99.90;;;;;;5053927;28;20185;-78
2023/12/04 10:51:07;;;;;;;2.05;0.40;;;20.30;99.90;;;;;;5054542;28;20256;-78
2023/12/04 10:53:40;;;;;;;2.83;0.30;;;20.30;99.90;;;;;;5053826;28;20281;-78
2023/12/04 10:56:17;;;;;;;1.65;0.30;;;20.30;99.90;;;;;;5053609;28;20225;-79
2023/12/04 10:58:52;;;;;;;1.30;0.30;;;20.30;99.90;;;;;;5053775;28;20551;-76
2023/12/04 11:01:26;;;;;;;1.60;0.40;;;20.30;99.90;;;;;;5053664;28;20201;-79
2023/12/04 11:04:01;;;;;;;2.40;0.40;;;20.30;99.90;;;;;;5053626;28;20240;-79
2023/12/04 11:06:33;;;;;;;2.05;0.30;;;20.30;99.90;;;;;;5053559;28;20193;-79
2023/12/04 11:09:06;;;;;;;1.55;0.30;;;20.20;99.90;;;;;;5053531;28;20650;-76
2023/12/04 11:11:38;;;;;;;0.57;0.40;;;20.20;99.90;;;;;;5053496;28;20221;-78
2023/12/04 11:14:12;;;;;;;1.40;0.38;;;20.20;99.90;;;;;;5053450;28;20194;-78
2023/12/04 11:16:49;;;;;;;3.42;0.30;;;20.20;99.90;;;;;;5053504;28;20262;-76
2023/12/04 11:19:28;;;;;;;1.10;0.32;;;20.20;99.90;;;;;;5053523;28;20193;-79
2023/12/04 11:22:01;;;;;;;2.40;0.32;;;20.20;99.90;;;;;;5053536;28;20529;-79
2023/12/04 11:24:33;;;;;;;2.78;0.30;;;20.20;99.90;;;;;;5053226;28;20190;-79
2023/12/04 11:27:04;;;;;;;2.17;0.30;;;20.20;99.90;;;;;;5052676;28;20194;-79
2023/12/04 11:29:35;;;;;;;1.17;0.40;;;20.20;99.90;;;;;;5053302;28;20190;-78
2023/12/04 11:32:15;;;;;;;1.30;0.20;;;20.20;99.90;;;;;;5053279;28;20613;-76
2023/12/04 11:34:52;;;;;;;1.45;0.30;;;20.20;99.90;;;;;;5053342;28;20547;-78
2023/12/04 11:37:23;;;;;;;2.40;0.30;;;20.10;99.90;;;;;;5053330;28;20193;-79
2023/12/04 11:39:56;;;;;;;1.67;0.30;;;20.10;99.90;;;;;;5053038;28;20186;-77
2023/12/04 11:42:29;;;;;;;1.88;0.30;;;20.10;99.90;;;;;;5053295;28;20275;-78
2023/12/04 11:45:01;;;;;;;1.90;0.40;;;20.10;99.90;;;;;;5053243;28;20189;-79
2023/12/04 11:47:50;;;;;;;0.63;0.20;;;20.10;99.90;;;;;;5053191;28;20225;-78
2023/12/04 11:50:22;;;;;;;1.45;0.50;;;20.00;99.90;;;;;;5053025;28;20572;-78
2023/12/04 11:52:53;;;;;;;1.30;0.35;;;20.10;99.90;;;;;;5052935;28;20564;-78
2023/12/04 11:55:25;;;;;;;3.20;0.50;;;20.10;99.90;;;;;;5053334;28;20194;-78
2023/12/04 11:57:58;;;;;;;3.03;0.40;;;20.10;99.90;;;;;;5053051;28;20196;-78
2023/12/04 12:00:29;;;;;;;0.90;0.40;;;20.00;99.90;;;;;;5053038;28;20204;-77
2023/12/04 12:03:10;;;;;;;0.75;0.50;;;20.00;99.90;;;;;;5052829;28;20243;-78
2023/12/04 12:05:41;;;;;;;1.00;0.30;;;20.00;99.90;;;;;;5053063;28;20276;-79
2023/12/04 12:08:13;;;;;;;1.13;0.35;;;19.90;99.90;;;;;;5052737;28;20258;-79
2023/12/04 12:10:44;;;;;;;2.75;0.30;;;19.90;99.90;;;;;;5052948;28;20300;-79
2023/12/04 12:13:16;;;;;;;0.98;0.30;;;19.90;99.90;;;;;;5052889;28;20193;-78
2023/12/04 12:15:50;;;;;;;1.95;0.30;;;19.90;99.90;;;;;;5052836;28;20646;-79
2023/12/04 12:18:25;;;;;;;1.55;0.35;;;19.80;99.90;;;;;;5053026;28;20201;-78
2023/12/04 12:20:58;;;;;;;3.25;0.30;;;19.80;99.90;;;;;;5053042;28;20193;-78
2023/12/04 12:23:30;;;;;;;2.55;0.50;;;19.80;99.90;;;;;;5052781;28;20192;-79
2023/12/04 12:26:02;;;;;;;1.08;0.30;;;19.80;99.90;;;;;;5052724;28;20200;-78
2023/12/04 12:28:33;;;;;;;3.08;0.40;;;19.80;99.90;;;;;;5052840;28;20686;-79
2023/12/04 12:31:07;;;;;;;2.70;0.40;;;19.80;99.90;;;;;;5052683;28;20216;-79
2023/12/04 12:33:40;;;;;;;3.35;0.43;;;19.80;99.90;;;;;;5052763;28;20601;-79
2023/12/04 12:36:12;;;;;;;0.73;0.20;;;19.80;99.90;;;;;;5052386;28;20186;-79
2023/12/04 12:38:46;;;;;;;1.52;0.30;;;19.80;99.90;;;;;;5054183;28;20200;-79
2023/12/04 12:41:17;;;;;;;1.08;0.40;;;19.80;99.90;;;;;;5056386;28;20649;-79
2023/12/04 12:43:49;;;;;;;1.85;0.50;;;19.80;99.90;;;;;;5056297;28;20189;-79
2023/12/04 12:46:21;;;;;;;1.35;0.30;;;19.80;99.90;;;;;;5056223;28;20660;-78
2023/12/04 12:48:55;;;;;;;1.35;0.50;;;19.80;99.90;;;;;;5056251;28;20243;-79
2023/12/04 12:51:27;;;;;;;0.88;0.30;;;19.70;99.90;;;;;;5055934;28;20223;-79
2023/12/04 12:54:01;;;;;;;0.90;0.30;;;19.70;99.90;;;;;;5056007;28;20281;-79
2023/12/04 12:56:31;;;;;;;2.00;0.40;;;19.70;99.90;;;;;;5055990;28;20680;-76
2023/12/04 12:59:03;;;;;;;2.15;0.30;;;19.70;99.90;;;;;;5056010;28;20280;-78
2023/12/04 13:01:35;;;;;;;1.38;0.40;;;19.70;99.90;;;;;;5055950;28;20233;-78
2023/12/04 13:04:09;;;;;;;1.63;0.40;;;19.70;99.90;;;;;;5056026;28;20324;-77
2023/12/04 13:06:40;;;;;;;0.85;0.30;;;19.60;99.90;;;;;;5055646;28;20621;-76
2023/12/04 13:09:17;;;;;;;1.08;0.30;;;19.60;99.90;;;;;;5055989;28;20216;-78
2023/12/04 13:11:48;;;;;;;2.53;0.43;;;19.60;99.90;;;;;;5055692;28;20217;-78